createdAt,value
2023-01-28T00:01:47.662Z,102450.25
2023-01-28T00:04:15.379Z,102449.00
2023-01-28T00:06:43.043Z,102440.59
2023-01-28T00:09:10.736Z,102442.56
2023-01-28T00:11:38.117Z,102445.31
2023-01-28T00:14:05.442Z,102436.66
2023-01-28T00:16:32.883Z,102440.50
2023-01-28T00:19:00.289Z,102436.22
2023-01-28T00:21:27.623Z,102431.47
2023-01-28T00:23:56.477Z,102434.06
2023-01-28T00:26:25.428Z,102432.88
2023-01-28T00:28:53.141Z,102440.84
2023-01-28T00:31:26.327Z,102445.22
2023-01-28T00:33:55.341Z,102447.44
2023-01-28T00:36:25.109Z,102443.53
2023-01-28T00:38:57.573Z,102441.78
2023-01-28T00:41:28.251Z,102452.59
2023-01-28T00:43:56.208Z,102445.03
2023-01-28T00:46:26.557Z,102446.97
2023-01-28T00:48:54.162Z,102440.66
2023-01-28T00:51:21.740Z,102440.06
2023-01-28T00:53:49.934Z,102437.91
2023-01-28T00:56:18.040Z,102434.50
2023-01-28T00:58:46.094Z,102436.19
2023-01-28T01:01:16.484Z,102427.19
2023-01-28T01:03:44.189Z,102429.28
2023-01-28T01:06:12.812Z,102436.34
2023-01-28T01:08:42.961Z,102430.41
2023-01-28T01:11:13.637Z,102422.66
2023-01-28T01:13:41.717Z,102432.84
2023-01-28T01:16:12.075Z,102430.59
2023-01-28T01:18:43.327Z,102434.88
2023-01-28T01:21:13.913Z,102445.06
2023-01-28T01:23:41.722Z,102433.97
2023-01-28T01:26:09.838Z,102433.00
2023-01-28T01:28:37.865Z,102437.91
2023-01-28T01:31:08.439Z,102441.91
2023-01-28T01:33:36.069Z,102438.97
2023-01-28T01:36:03.785Z,102448.72
2023-01-28T01:38:31.313Z,102438.53
2023-01-28T01:40:59.850Z,102453.44
2023-01-28T01:43:49.661Z,102440.41
2023-01-28T01:46:23.249Z,102438.09
2023-01-28T01:48:52.093Z,102443.34
2023-01-28T01:51:24.596Z,102439.88
2023-01-28T01:53:55.091Z,102436.06
2023-01-28T01:56:28.583Z,102439.16
2023-01-28T01:58:58.217Z,102441.41
2023-01-28T02:01:29.405Z,102442.31
2023-01-28T02:04:12.915Z,102440.66
2023-01-28T02:06:42.153Z,102439.97
2023-01-28T02:09:26.252Z,102451.31
2023-01-28T02:11:58.096Z,102446.56
2023-01-28T02:14:31.915Z,102455.41
2023-01-28T02:17:03.122Z,102460.34
2023-01-28T02:19:55.140Z,102466.22
2023-01-28T02:22:44.534Z,102464.06
2023-01-28T02:25:48.858Z,102460.69
2023-01-28T02:28:36.174Z,102467.91
2023-01-28T02:31:39.965Z,102461.22
2023-01-28T02:34:25.411Z,102460.44
2023-01-28T02:37:02.943Z,102465.69
2023-01-28T02:39:36.288Z,102463.25
2023-01-28T02:42:09.989Z,102467.47
2023-01-28T02:44:39.749Z,102474.25
2023-01-28T02:47:32.732Z,102474.00
2023-01-28T02:50:04.833Z,102465.94
2023-01-28T02:53:09.637Z,102474.50
2023-01-28T02:56:01.945Z,102470.84
2023-01-28T02:58:55.525Z,102471.59
2023-01-28T03:01:39.356Z,102486.38
2023-01-28T03:04:55.992Z,102478.00
2023-01-28T03:07:25.450Z,102490.06
2023-01-28T03:09:54.205Z,102485.88
2023-01-28T03:12:48.394Z,102486.84
2023-01-28T03:15:47.927Z,102480.50
2023-01-28T03:18:41.837Z,102483.88
2023-01-28T03:21:36.771Z,102485.31
2023-01-28T03:24:30.797Z,102488.09
2023-01-28T03:27:29.106Z,102487.84
2023-01-28T03:30:27.336Z,102488.63
2023-01-28T03:33:15.579Z,102497.50
2023-01-28T03:36:02.007Z,102492.88
2023-01-28T03:38:34.081Z,102501.69
2023-01-28T03:41:04.226Z,102494.75
2023-01-28T03:43:32.582Z,102498.78
2023-01-28T03:46:00.470Z,102497.88
2023-01-28T03:48:29.041Z,102504.38
2023-01-28T03:50:57.595Z,102499.50
2023-01-28T03:53:28.315Z,102502.97
2023-01-28T03:55:57.397Z,102500.47
2023-01-28T03:58:27.271Z,102507.06
2023-01-28T04:00:55.083Z,102508.84
2023-01-28T04:03:22.609Z,102506.09
2023-01-28T04:06:03.646Z,102510.31
2023-01-28T04:08:59.612Z,102514.03
2023-01-28T04:11:30.127Z,102511.81
2023-01-28T04:13:59.143Z,102515.81
2023-01-28T04:16:29.223Z,102519.69
2023-01-28T04:18:58.069Z,102520.63
2023-01-28T04:21:25.600Z,102522.59
2023-01-28T04:23:53.037Z,102527.06
2023-01-28T04:26:20.391Z,102518.50
2023-01-28T04:28:47.943Z,102520.56
2023-01-28T04:31:15.381Z,102518.78
2023-01-28T04:33:42.778Z,102517.72
2023-01-28T04:36:21.263Z,102518.09
2023-01-28T04:39:20.870Z,102515.50
2023-01-28T04:42:06.871Z,102510.75
2023-01-28T04:44:57.266Z,102514.25
2023-01-28T04:47:53.949Z,102514.88
2023-01-28T04:50:31.303Z,102512.31
2023-01-28T04:53:20.656Z,102517.31
2023-01-28T04:55:58.905Z,102512.00
2023-01-28T04:58:29.886Z,102516.88
2023-01-28T05:01:01.963Z,102514.31
2023-01-28T05:03:30.200Z,102517.97
2023-01-28T05:05:57.782Z,102526.50
2023-01-28T05:08:36.193Z,102528.69
2023-01-28T05:11:03.981Z,102527.22
2023-01-28T05:13:31.423Z,102536.38
2023-01-28T05:15:59.041Z,102533.19
2023-01-28T05:18:26.537Z,102539.16
2023-01-28T05:21:15.245Z,102539.34
2023-01-28T05:23:44.195Z,102537.47
2023-01-28T05:26:11.565Z,102539.25
2023-01-28T05:28:39.317Z,102542.13
2023-01-28T05:31:08.685Z,102541.50
2023-01-28T05:33:36.246Z,102549.78
2023-01-28T05:36:06.356Z,102547.22
2023-01-28T05:38:34.187Z,102552.81
2023-01-28T05:41:01.712Z,102545.91
2023-01-28T05:43:29.483Z,102548.50
2023-01-28T05:46:16.423Z,102556.97
2023-01-28T05:49:12.293Z,102557.16
2023-01-28T05:51:55.369Z,102564.91
2023-01-28T05:54:23.490Z,102573.44
2023-01-28T05:56:50.820Z,102557.84
2023-01-28T05:59:18.455Z,102564.94
2023-01-28T06:01:48.345Z,102560.34
2023-01-28T06:04:18.915Z,102564.19
2023-01-28T06:06:47.645Z,102565.19
2023-01-28T06:09:16.003Z,102561.44
2023-01-28T06:11:44.449Z,102561.44
2023-01-28T06:14:11.917Z,102572.25
2023-01-28T06:16:57.751Z,102574.03
2023-01-28T06:19:25.046Z,102570.06
2023-01-28T06:21:52.283Z,102573.03
2023-01-28T06:24:20.614Z,102575.09
2023-01-28T06:26:48.160Z,102574.31
2023-01-28T06:29:16.042Z,102572.78
2023-01-28T06:31:43.601Z,102577.47
2023-01-28T06:34:11.150Z,102570.53
2023-01-28T06:36:38.423Z,102574.91
2023-01-28T06:39:05.702Z,102572.03
2023-01-28T06:41:32.862Z,102573.00
2023-01-28T06:44:00.122Z,102572.03
2023-01-28T06:46:27.501Z,102577.81
2023-01-28T06:48:54.899Z,102584.44
2023-01-28T06:51:22.281Z,102584.28
2023-01-28T06:53:49.740Z,102586.84
2023-01-28T06:56:17.061Z,102588.44
2023-01-28T06:58:44.330Z,102592.28
2023-01-28T07:01:11.789Z,102591.63
2023-01-28T07:03:39.182Z,102596.78
2023-01-28T07:06:06.780Z,102609.16
2023-01-28T07:08:34.612Z,102611.28
2023-01-28T07:11:02.130Z,102605.97
2023-01-28T07:13:29.589Z,102602.66
2023-01-28T07:15:57.011Z,102607.03
2023-01-28T07:18:24.445Z,102594.59
2023-01-28T07:20:51.679Z,102597.91
2023-01-28T07:23:19.143Z,102598.19
2023-01-28T07:25:46.503Z,102594.13
2023-01-28T07:28:14.372Z,102587.56
2023-01-28T07:30:41.684Z,102592.22
2023-01-28T07:33:10.843Z,102590.13
2023-01-28T07:35:38.408Z,102591.22
2023-01-28T07:38:05.767Z,102597.41
2023-01-28T07:40:32.947Z,102603.88
2023-01-28T07:43:01.109Z,102596.81
2023-01-28T07:45:36.913Z,102597.44
2023-01-28T07:48:07.491Z,102607.84
2023-01-28T07:50:37.327Z,102609.94
2023-01-28T07:53:11.455Z,102607.66
2023-01-28T07:55:39.570Z,102602.56
2023-01-28T07:58:08.578Z,102597.72
2023-01-28T08:00:37.629Z,102591.06
2023-01-28T08:03:16.090Z,102598.84
2023-01-28T08:05:49.619Z,102597.47
2023-01-28T08:08:17.416Z,102590.44
2023-01-28T08:10:46.269Z,102594.22
2023-01-28T08:13:15.781Z,102600.31
2023-01-28T08:15:44.168Z,102610.00
2023-01-28T08:18:13.660Z,102618.97
2023-01-28T08:20:43.667Z,102611.66
2023-01-28T08:23:19.422Z,102618.00
2023-01-28T08:25:47.853Z,102617.44
2023-01-28T08:28:16.802Z,102617.97
2023-01-28T08:30:45.162Z,102623.09
2023-01-28T08:33:14.960Z,102621.63
2023-01-28T08:35:42.733Z,102626.00
2023-01-28T08:38:12.470Z,102632.06
2023-01-28T08:40:40.147Z,102631.03
2023-01-28T08:43:07.704Z,102635.81
2023-01-28T08:45:35.111Z,102628.31
2023-01-28T08:48:06.564Z,102621.44
2023-01-28T08:50:38.734Z,102628.28
2023-01-28T08:53:15.803Z,102613.94
2023-01-28T08:55:44.114Z,102623.81
2023-01-28T08:58:14.245Z,102613.19
2023-01-28T09:00:42.300Z,102625.56
2023-01-28T09:03:10.071Z,102614.44
2023-01-28T09:05:38.473Z,102623.69
2023-01-28T09:08:11.498Z,102623.31
2023-01-28T09:10:39.781Z,102629.44
2023-01-28T09:13:09.812Z,102628.25
2023-01-28T09:15:37.941Z,102629.94
2023-01-28T09:18:06.327Z,102648.31
2023-01-28T09:20:34.622Z,102648.09
2023-01-28T09:23:02.785Z,102636.66
2023-01-28T09:25:30.755Z,102645.19
2023-01-28T09:27:58.535Z,102649.47
2023-01-28T09:30:26.634Z,102661.44
2023-01-28T09:32:55.367Z,102653.50
2023-01-28T09:35:23.671Z,102644.63
2023-01-28T09:37:52.173Z,102663.44
2023-01-28T09:40:33.056Z,102663.28
2023-01-28T09:43:19.089Z,102653.19
2023-01-28T09:45:49.188Z,102662.78
2023-01-28T09:48:21.852Z,102674.13
2023-01-28T09:50:53.059Z,102670.09
2023-01-28T09:53:50.574Z,102674.34
2023-01-28T09:56:40.035Z,102675.22
2023-01-28T09:59:22.017Z,102682.34
2023-01-28T10:02:19.169Z,102681.97
2023-01-28T10:05:14.734Z,102694.47
2023-01-28T10:07:57.732Z,102696.00
2023-01-28T10:10:41.014Z,102696.34
2023-01-28T10:13:39.936Z,102703.56
2023-01-28T10:16:24.565Z,102712.59
2023-01-28T10:19:06.002Z,102705.59
2023-01-28T10:21:52.061Z,102715.38
2023-01-28T10:24:36.044Z,102714.84
2023-01-28T10:27:11.104Z,102716.91
2023-01-28T10:29:40.000Z,102714.75
2023-01-28T10:32:34.948Z,102720.41
2023-01-28T10:35:03.636Z,102711.16
2023-01-28T10:37:35.029Z,102714.50
2023-01-28T10:40:04.213Z,102711.59
2023-01-28T10:42:38.941Z,102712.50
2023-01-28T10:45:10.403Z,102722.09
2023-01-28T10:47:54.756Z,102712.94
2023-01-28T10:50:25.220Z,102714.31
2023-01-28T10:52:58.541Z,102721.25
2023-01-28T10:55:30.853Z,102726.53
2023-01-28T10:57:59.473Z,102724.00
2023-01-28T11:00:33.112Z,102716.13
2023-01-28T11:03:00.643Z,102697.50
2023-01-28T11:05:29.675Z,102695.41
2023-01-28T11:08:15.615Z,102702.78
2023-01-28T11:10:44.585Z,102695.09
2023-01-28T11:13:18.662Z,102690.09
2023-01-28T11:15:49.332Z,102687.09
2023-01-28T11:18:25.086Z,102684.25
2023-01-28T11:20:57.158Z,102687.72
2023-01-28T11:23:59.577Z,102676.34
2023-01-28T11:26:35.019Z,102675.94
2023-01-28T11:29:02.737Z,102665.50
2023-01-28T11:31:43.071Z,102670.63
2023-01-28T11:34:16.122Z,102662.72
2023-01-28T11:37:13.880Z,102667.13
2023-01-28T11:39:41.756Z,102659.72
2023-01-28T11:42:17.750Z,102658.56
2023-01-28T11:44:46.803Z,102658.50
2023-01-28T11:47:20.498Z,102651.84
2023-01-28T11:50:00.696Z,102655.00
2023-01-28T11:53:06.407Z,102657.50
2023-01-28T11:55:42.032Z,102644.78
2023-01-28T11:58:24.152Z,102641.44
2023-01-28T12:01:22.917Z,102647.53
2023-01-28T12:04:15.022Z,102644.03
2023-01-28T12:07:41.232Z,102642.19
2023-01-28T12:10:25.683Z,102636.25
2023-01-28T12:13:05.889Z,102637.97
2023-01-28T12:15:33.414Z,102637.03
2023-01-28T12:18:06.869Z,102631.84
2023-01-28T12:20:53.083Z,102632.47
2023-01-28T12:24:04.087Z,102629.94
2023-01-28T12:26:31.688Z,102631.94
2023-01-28T12:29:08.912Z,102619.59
2023-01-28T12:31:48.146Z,102618.22
2023-01-28T12:34:55.351Z,102629.44
2023-01-28T12:38:10.709Z,102619.91
2023-01-28T12:40:43.848Z,102620.25
2023-01-28T12:43:29.643Z,102620.56
2023-01-28T12:46:12.893Z,102610.22
2023-01-28T12:48:47.929Z,102599.38
2023-01-28T12:51:25.234Z,102602.59
2023-01-28T12:54:01.406Z,102625.88
2023-01-28T12:56:34.621Z,102610.69
2023-01-28T12:59:25.702Z,102609.31
2023-01-28T13:02:01.613Z,102600.16
2023-01-28T13:04:42.658Z,102603.06
2023-01-28T13:07:39.671Z,102597.72
2023-01-28T13:10:13.538Z,102600.97
2023-01-28T13:12:41.939Z,102599.66
2023-01-28T13:15:18.423Z,102602.06
2023-01-28T13:17:59.954Z,102601.53
2023-01-28T13:20:46.389Z,102609.50
2023-01-28T13:23:26.063Z,102589.94
2023-01-28T13:25:55.692Z,102591.25
2023-01-28T13:28:32.417Z,102584.06
2023-01-28T13:31:09.553Z,102588.13
2023-01-28T13:33:39.816Z,102599.03
2023-01-28T13:36:45.484Z,102588.38
2023-01-28T13:39:22.677Z,102593.25
2023-01-28T13:42:09.947Z,102584.81
2023-01-28T13:44:38.159Z,102582.31
2023-01-28T13:47:08.531Z,102586.91
2023-01-28T13:49:47.150Z,102579.13
2023-01-28T13:52:14.566Z,102562.09
2023-01-28T13:54:48.125Z,102575.09
2023-01-28T13:57:57.785Z,102562.34
2023-01-28T14:00:42.620Z,102566.50
2023-01-28T14:03:37.387Z,102558.94
2023-01-28T14:06:29.803Z,102555.91
2023-01-28T14:09:21.386Z,102570.72
2023-01-28T14:12:33.673Z,102559.16
2023-01-28T14:15:25.527Z,102567.16
2023-01-28T14:17:56.206Z,102559.81
2023-01-28T14:20:32.803Z,102554.00
2023-01-28T14:23:06.784Z,102561.13
2023-01-28T14:25:50.556Z,102551.06
2023-01-28T14:28:31.289Z,102568.75
2023-01-28T14:31:09.322Z,102574.94
2023-01-28T14:33:38.155Z,102573.06
2023-01-28T14:36:06.013Z,102567.84
2023-01-28T14:38:39.873Z,102569.06
2023-01-28T14:41:09.011Z,102578.63
2023-01-28T14:43:40.035Z,102579.59
2023-01-28T14:46:35.035Z,102574.94
2023-01-28T14:49:40.771Z,102586.28
2023-01-28T14:52:54.880Z,102582.63
2023-01-28T14:55:45.638Z,102585.31
2023-01-28T14:58:18.701Z,102577.69
2023-01-28T15:00:55.561Z,102582.63
2023-01-28T15:03:25.298Z,102590.09
2023-01-28T15:06:13.085Z,102596.41
2023-01-28T15:08:40.873Z,102589.44
2023-01-28T15:11:16.766Z,102592.75
2023-01-28T15:13:47.692Z,102594.00
2023-01-28T15:16:24.774Z,102605.59
2023-01-28T15:18:53.195Z,102606.63
2023-01-28T15:21:25.923Z,102605.09
2023-01-28T15:23:56.833Z,102617.09
2023-01-28T15:26:35.038Z,102617.50
2023-01-28T15:29:02.687Z,102613.34
2023-01-28T15:31:39.079Z,102615.25
2023-01-28T15:34:18.830Z,102620.06
2023-01-28T15:36:49.682Z,102626.00
2023-01-28T15:39:20.938Z,102628.03
2023-01-28T15:42:01.627Z,102627.44
2023-01-28T15:44:39.027Z,102628.09
2023-01-28T15:47:23.485Z,102626.47
2023-01-28T15:49:54.375Z,102640.53
2023-01-28T15:52:29.573Z,102634.34
2023-01-28T15:54:58.013Z,102637.09
2023-01-28T15:57:31.148Z,102634.50
2023-01-28T16:00:13.385Z,102634.25
2023-01-28T16:02:46.295Z,102636.47
2023-01-28T16:05:37.355Z,102641.72
2023-01-28T16:08:12.125Z,102639.38
2023-01-28T16:10:39.773Z,102631.50
2023-01-28T16:13:17.108Z,102636.00
2023-01-28T16:15:52.809Z,102640.03
2023-01-28T16:18:26.829Z,102655.31
2023-01-28T16:20:54.562Z,102649.44
2023-01-28T16:23:29.073Z,102648.31
2023-01-28T16:26:04.791Z,102659.00
2023-01-28T16:28:33.129Z,102644.03
2023-01-28T16:31:00.845Z,102653.44
2023-01-28T16:33:28.497Z,102659.34
2023-01-28T16:36:07.817Z,102665.69
2023-01-28T16:38:36.297Z,102662.50
2023-01-28T16:41:03.998Z,102667.31
2023-01-28T16:43:31.478Z,102662.75
2023-01-28T16:45:58.906Z,102666.16
2023-01-28T16:48:26.159Z,102667.03
2023-01-28T16:50:53.499Z,102677.00
2023-01-28T16:53:23.066Z,102673.38
2023-01-28T16:55:51.537Z,102673.13
2023-01-28T16:58:24.266Z,102679.22
2023-01-28T17:00:51.851Z,102671.19
2023-01-28T17:03:20.022Z,102679.13
2023-01-28T17:05:47.582Z,102670.63
2023-01-28T17:08:15.420Z,102687.97
2023-01-28T17:10:43.259Z,102691.94
2023-01-28T17:13:10.799Z,102697.84
2023-01-28T17:15:38.266Z,102695.59
2023-01-28T17:18:05.674Z,102698.31
2023-01-28T17:20:37.507Z,102696.78
2023-01-28T17:23:07.179Z,102698.72
2023-01-28T17:25:41.867Z,102701.16
2023-01-28T17:28:10.755Z,102701.88
2023-01-28T17:30:42.432Z,102693.88
2023-01-28T17:33:10.244Z,102693.63
2023-01-28T17:35:37.981Z,102700.53
2023-01-28T17:38:06.169Z,102697.13
2023-01-28T17:40:33.790Z,102699.38
2023-01-28T17:43:01.329Z,102692.56
2023-01-28T17:45:31.210Z,102701.16
2023-01-28T17:47:58.746Z,102704.91
2023-01-28T17:50:26.456Z,102700.00
2023-01-28T17:52:57.743Z,102707.22
2023-01-28T17:55:25.877Z,102702.69
2023-01-28T17:57:53.272Z,102710.28
2023-01-28T18:00:21.123Z,102707.50
2023-01-28T18:02:52.552Z,102712.41
2023-01-28T18:05:21.374Z,102716.97
2023-01-28T18:07:50.557Z,102712.16
2023-01-28T18:10:18.971Z,102712.69
2023-01-28T18:12:46.557Z,102707.50
2023-01-28T18:15:14.426Z,102705.78
2023-01-28T18:17:42.139Z,102704.34
2023-01-28T18:20:10.958Z,102712.59
2023-01-28T18:22:38.385Z,102715.75
2023-01-28T18:25:05.990Z,102720.28
2023-01-28T18:27:33.358Z,102716.88
2023-01-28T18:30:00.861Z,102714.28
2023-01-28T18:32:28.205Z,102716.44
2023-01-28T18:34:55.872Z,102719.75
2023-01-28T18:37:23.210Z,102722.06
2023-01-28T18:39:50.596Z,102718.84
2023-01-28T18:42:18.023Z,102725.00
2023-01-28T18:44:45.399Z,102728.78
2023-01-28T18:47:12.682Z,102733.25
2023-01-28T18:49:43.405Z,102735.06
2023-01-28T18:52:11.002Z,102737.81
2023-01-28T18:54:38.602Z,102736.75
2023-01-28T18:57:06.221Z,102723.47
2023-01-28T18:59:33.469Z,102720.06
2023-01-28T19:02:01.118Z,102717.16
2023-01-28T19:04:28.566Z,102712.75
2023-01-28T19:06:57.490Z,102714.75
2023-01-28T19:09:24.959Z,102704.91
2023-01-28T19:11:52.489Z,102700.78
2023-01-28T19:14:19.822Z,102713.56
2023-01-28T19:16:47.263Z,102718.94
2023-01-28T19:19:14.831Z,102720.47
2023-01-28T19:21:42.289Z,102718.38
2023-01-28T19:24:11.711Z,102719.81
2023-01-28T19:26:39.204Z,102718.59
2023-01-28T19:29:07.953Z,102731.22
2023-01-28T19:31:36.040Z,102726.81
2023-01-28T19:34:04.023Z,102722.41
2023-01-28T19:36:33.775Z,102712.59
2023-01-28T19:39:08.918Z,102722.06
2023-01-28T19:41:36.684Z,102723.69
2023-01-28T19:44:05.585Z,102719.06
2023-01-28T19:46:34.035Z,102721.34
2023-01-28T19:49:01.574Z,102725.66
2023-01-28T19:51:29.100Z,102723.44
2023-01-28T19:53:56.443Z,102720.19
2023-01-28T19:56:27.211Z,102719.94
2023-01-28T19:58:55.000Z,102726.63
2023-01-28T20:01:27.182Z,102718.41
2023-01-28T20:03:59.272Z,102721.00
2023-01-28T20:06:29.917Z,102731.09
2023-01-28T20:09:00.809Z,102729.06
2023-01-28T20:11:29.190Z,102729.06
2023-01-28T20:13:56.895Z,102721.91
2023-01-28T20:16:26.553Z,102729.44
2023-01-28T20:18:59.966Z,102732.47
2023-01-28T20:21:29.859Z,102739.34
2023-01-28T20:23:59.748Z,102734.72
2023-01-28T20:26:36.213Z,102726.72
2023-01-28T20:29:17.455Z,102732.00
2023-01-28T20:31:45.078Z,102724.03
2023-01-28T20:34:18.796Z,102738.97
2023-01-28T20:36:46.606Z,102739.00
2023-01-28T20:39:16.624Z,102735.59
2023-01-28T20:41:44.171Z,102745.97
2023-01-28T20:44:11.707Z,102740.78
2023-01-28T20:46:39.309Z,102744.16
2023-01-28T20:49:06.868Z,102734.34
2023-01-28T20:51:35.952Z,102745.50
2023-01-28T20:54:04.109Z,102744.00
2023-01-28T20:56:31.949Z,102753.22
2023-01-28T20:59:02.749Z,102746.34
2023-01-28T21:01:34.247Z,102748.47
2023-01-28T21:04:02.730Z,102757.88
2023-01-28T21:06:30.736Z,102754.75
2023-01-28T21:08:58.699Z,102753.41
2023-01-28T21:11:27.205Z,102754.47
2023-01-28T21:13:55.479Z,102745.72
2023-01-28T21:16:23.303Z,102749.31
2023-01-28T21:18:50.966Z,102747.78
2023-01-28T21:21:24.802Z,102753.59
2023-01-28T21:23:56.833Z,102749.56
2023-01-28T21:26:24.726Z,102750.38
2023-01-28T21:28:52.305Z,102751.88
2023-01-28T21:31:28.095Z,102757.66
2023-01-28T21:34:04.055Z,102752.78
2023-01-28T21:36:34.368Z,102747.06
2023-01-28T21:39:03.136Z,102741.34
2023-01-28T21:41:31.429Z,102737.31
2023-01-28T21:43:59.214Z,102735.84
2023-01-28T21:46:29.534Z,102734.94
2023-01-28T21:48:59.228Z,102731.25
2023-01-28T21:51:36.472Z,102743.75
2023-01-28T21:54:04.275Z,102735.75
2023-01-28T21:56:31.940Z,102743.53
2023-01-28T21:59:17.856Z,102743.22
2023-01-28T22:01:46.182Z,102739.38
2023-01-28T22:04:14.633Z,102742.78
2023-01-28T22:06:42.710Z,102741.72
2023-01-28T22:09:14.488Z,102740.50
2023-01-28T22:11:43.564Z,102739.47
2023-01-28T22:14:12.315Z,102742.75
2023-01-28T22:16:40.098Z,102745.16
2023-01-28T22:19:08.028Z,102756.97
2023-01-28T22:21:41.377Z,102758.44
2023-01-28T22:24:17.558Z,102752.28
2023-01-28T22:26:46.528Z,102747.91
2023-01-28T22:29:15.907Z,102753.38
2023-01-28T22:31:46.061Z,102756.59
2023-01-28T22:34:13.993Z,102756.00
2023-01-28T22:36:41.470Z,102756.38
2023-01-28T22:39:13.550Z,102760.47
2023-01-28T22:41:42.327Z,102760.47
2023-01-28T22:44:10.096Z,102770.84
2023-01-28T22:46:37.770Z,102767.63
2023-01-28T22:49:05.616Z,102774.31
2023-01-28T22:51:35.832Z,102773.31
2023-01-28T22:54:04.177Z,102769.81
2023-01-28T22:56:32.061Z,102768.66
2023-01-28T22:59:02.408Z,102774.16
2023-01-28T23:01:30.790Z,102775.66
2023-01-28T23:03:58.521Z,102781.88
2023-01-28T23:06:28.242Z,102776.88
2023-01-28T23:08:56.641Z,102767.44
2023-01-28T23:11:25.670Z,102763.28
2023-01-28T23:14:17.496Z,102762.75
2023-01-28T23:17:04.775Z,102758.94
2023-01-28T23:19:51.094Z,102752.78
2023-01-28T23:22:51.655Z,102759.66
2023-01-28T23:25:20.272Z,102766.28
2023-01-28T23:27:47.770Z,102767.22
2023-01-28T23:30:16.082Z,102760.88
2023-01-28T23:32:47.323Z,102767.13
2023-01-28T23:35:15.582Z,102768.41
2023-01-28T23:37:43.038Z,102777.84
2023-01-28T23:40:11.486Z,102785.72
2023-01-28T23:42:39.052Z,102785.66
2023-01-28T23:45:07.233Z,102786.47
2023-01-28T23:47:34.727Z,102783.44
2023-01-28T23:50:02.390Z,102781.88
2023-01-28T23:52:29.838Z,102784.66
2023-01-28T23:54:57.357Z,102781.72
2023-01-28T23:57:24.875Z,102780.63
2023-01-28T23:59:52.364Z,102780.78
